Plaza, Washington
Current Conditions -  °F | °C
As of 5:53 PM on Monday 22 Dec 2014 (Local Time) from KGEG Reporting Station
Few Clouds Few Clouds  
Wind Chill: 28°   Ceiling: Unl
Heat Index: 35°   Visibility: 10mi
Dew Point: 28°   Wind: 9mph
Humidity: 76%   Direction: 230°SW
Pressure: 30.26"   Gusts: NA
Location:  47.2196°N, 117.453°W
Report Text: KGEG 230153Z 23008KT 10SM FEW120 02/M02 A3026 RMK AO2 SLP267 T00171022
Loading
Personal Weather Stations






























Interactive Weather Map New forecast layout! Learn more

10-Day Weather Forecast

Advertisements
Track Severe Weather on mobile